Flight Track Log - Related Links

Times and Time Zones

All times are in EDT time to prevent confusion due to time zone crossing. See the UAL5914 flight status page for this flight to view local times or setup timezone preferences in your user account.

Time Position Orientation Groundspeed Altitude Reporting Facility
EDT Latitude Longitude Course Direction KTS MPH feet Rate Location/Type
Thu 09:47:40 PM 39.8000 -104.9167 251° West 279 321 11,300  Level Denver TRACON
Thu 09:48:00 PM 39.7892 -104.9444 243° Southwest 275 316 12,300 2,561 Climbing Denver Center
Thu 09:49:02 PM 39.7589 -105.0475 249° West 303 349 14,800 2,371 Climbing Denver Center
Thu 09:50:04 PM 39.7211 -105.1528 245° Southwest 320 368 17,200 1,839 Climbing Denver Center
Thu 09:51:00 PM 39.6760 -105.2146 237° Southwest  Level FlightAware Approximate
Thu 09:51:06 PM 39.6769 -105.2733 245° Southwest 348 400 18,600  Level Denver Center
Thu 09:52:00 PM 39.6358 -105.3199 251° West  Level FlightAware Approximate
Thu 09:52:08 PM 39.6322 -105.4008 246° West 388 447 19,500  Level Denver Center
Thu 09:53:21 PM 39.5775 -105.5450 244° Southwest 419 482 20,800 1,324 Climbing Denver Center
Thu 09:54:24 PM 39.5211 -105.7219 248° West 430 495 22,500 1,445 Climbing Denver Center
Thu 09:55:38 PM 39.4753 -105.8867 250° West 413 475 24,100 1,368 Climbing Denver Center
Thu 09:56:40 PM 39.4367 -106.0317 251° West 421 484 25,600 1,463 Climbing Denver Center
Thu 09:57:41 PM 39.3925 -106.1747 248° West 420 483 27,100 1,161 Climbing Denver Center
Thu 09:58:44 PM 39.2819 -106.2889 219° Southwest 456 525 28,000 432 Climbing Denver Center
Thu 09:59:46 PM 39.1775 -106.3847 215° Southwest 473 544 28,000  Level Denver Center
Thu 10:00:48 PM 39.0478 -106.4967 214° Southwest 497 572 28,000 -146 Level Denver Center
Thu 10:01:49 PM 38.9339 -106.5936 214° Southwest 508 585 27,700 -1,707 Descending Denver Center
Thu 10:02:51 PM 38.8161 -106.6928 213° Southwest 498 573 24,500 -3,290 Descending Denver Center
Thu 10:03:53 PM 38.7039 -106.7878 213° Southwest 486 559 20,900 -3,387 Descending Denver Center
Thu 10:04:55 PM 38.6000 -106.8753 213° Southwest 458 527 17,500 -2,419 Descending Denver Center
Thu 10:05:57 PM 38.5106 -106.9517 214° Southwest 411 473 15,900 -1,065 Descending Denver Center
Thu 10:06:59 PM 38.4183 -107.0356 215° Southwest 392 451 15,300 -581 Descending Denver Center
Thu 10:08:00 PM 38.5143 -106.9364 39° Northeast  Level FlightAware Approximate
Thu 10:15:00 PM 38.5333 -106.9167 38° Northeast  Level FlightAware Approximate
Thu 10:16:00 PM 38.5339 -106.9330 38° Northeast  Level Estimated
Thu 10:17:00 PM 38.5339 -106.9330 38° Northeast  Level Estimated

Login

Don't have an account? Register now (free) for customized features, flight alerts, and more!